Time;durP1;ratioP1;P1;durP2;ratioP2;P2;SDS_P1;SDS_P2;PMS_P1;PMS_P2;Temp;Humidity;BMP_temperature;BMP_pressure;BME280_temperature;BME280_humidity;BME280_pressure;Samples;Min_cycle;Max_cycle;Signal;HPM_P1;HPM_P2
2022/11/11 00:00:11;;;;;;;9.30;3.38;;;;;;;8.92;79.94;100114.50;5023596;28;20087;-83
2022/11/11 00:02:36;;;;;;;9.52;3.80;;;;;;;8.91;79.66;100116.34;5020345;28;20059;-83
2022/11/11 00:05:02;;;;;;;6.72;2.83;;;;;;;8.81;79.61;100097.31;5007980;28;20030;-83
2022/11/11 00:07:28;;;;;;;8.23;3.45;;;;;;;8.94;79.46;100112.47;5001059;28;20025;-83
2022/11/11 00:09:53;;;;;;;7.70;3.40;;;;;;;8.87;79.58;100104.47;5001585;28;20041;-83
2022/11/11 00:12:19;;;;;;;4.63;3.15;;;;;;;9.03;78.82;100089.91;5006274;28;20033;-84
2022/11/11 00:14:44;;;;;;;9.20;3.80;;;;;;;8.67;80.34;100111.66;4992363;28;20049;-84
2022/11/11 00:25:24;;;;;;;5.63;3.28;;;;;;;8.61;80.79;100122.28;4993932;28;20036;-83
2022/11/11 00:27:50;;;;;;;11.02;4.18;;;;;;;8.05;82.94;100117.28;5022270;28;20037;-83
2022/11/11 00:30:15;;;;;;;8.43;4.43;;;;;;;8.33;80.69;100093.22;5003498;28;20061;-84
2022/11/11 00:32:41;;;;;;;7.75;3.80;;;;;;;8.21;81.82;100106.25;5007893;28;20029;-83
2022/11/11 00:37:51;;;;;;;12.38;3.88;;;;;;;8.19;81.26;100088.91;5019720;28;20040;-83
2022/11/11 00:40:18;;;;;;;9.70;4.72;;;;;;;8.47;80.65;100110.84;5024562;28;20393;-83
2022/11/11 00:42:44;;;;;;;12.40;5.10;;;;;;;8.39;81.35;100099.59;5024376;28;20036;-83
2022/11/11 00:45:10;;;;;;;8.77;3.75;;;;;;;8.74;79.84;100095.69;5002053;28;20033;-84
2022/11/11 00:53:18;;;;;;;12.02;4.40;;;;;;;8.28;81.13;100115.13;5008289;28;20115;-84
2022/11/11 00:55:44;;;;;;;10.10;3.92;;;;;;;8.56;80.71;100114.91;5025333;28;20037;-83
2022/11/11 00:58:09;;;;;;;9.13;3.42;;;;;;;8.65;80.27;100123.56;5024999;28;20037;-84
2022/11/11 01:00:35;;;;;;;6.82;3.75;;;;;;;8.78;79.05;100124.34;5024112;28;20609;-84
2022/11/11 01:03:00;;;;;;;10.65;3.78;;;;;;;8.70;78.80;100119.25;5002569;28;20124;-83
2022/11/11 01:05:26;;;;;;;16.73;4.47;;;;;;;8.63;79.67;100136.22;4986383;28;20140;-83
2022/11/11 01:07:51;;;;;;;9.32;3.65;;;;;;;8.18;81.17;100143.91;5023870;28;20083;-83
2022/11/11 01:10:37;;;;;;;6.95;4.10;;;;;;;8.11;81.52;100147.56;5003586;28;20103;-83
2022/11/11 01:13:12;;;;;;;6.13;3.58;;;;;;;8.14;81.30;100140.03;5012881;28;20052;-83
2022/11/11 01:15:40;;;;;;;8.88;3.80;;;;;;;8.27;81.53;100139.25;4993192;28;20041;-83
2022/11/11 01:18:06;;;;;;;6.28;3.45;;;;;;;8.33;80.31;100138.44;5020240;28;20377;-84
2022/11/11 01:20:31;;;;;;;7.88;4.07;;;;;;;8.59;78.94;100124.34;5009411;28;20033;-83
2022/11/11 01:22:56;;;;;;;6.93;3.50;;;;;;;8.49;79.03;100118.63;5007743;28;20041;-84
2022/11/11 01:25:22;;;;;;;9.70;3.80;;;;;;;8.63;78.14;100137.03;5005031;28;20079;-83
2022/11/11 01:27:47;;;;;;;9.63;4.30;;;;;;;8.38;78.16;100113.91;5007837;28;20417;-84
2022/11/11 01:30:12;;;;;;;6.35;3.50;;;;;;;8.62;78.21;100143.41;4988514;28;20151;-83
2022/11/11 01:32:39;;;;;;;10.55;3.97;;;;;;;8.03;79.13;100111.38;5002958;28;20049;-83
2022/11/11 01:35:06;;;;;;;9.73;4.47;;;;;;;8.52;78.54;100148.28;5006931;28;20067;-83
2022/11/11 01:37:32;;;;;;;6.28;4.30;;;;;;;8.56;78.79;100146.06;5021826;28;20082;-84
2022/11/11 01:39:57;;;;;;;9.18;5.40;;;;;;;8.39;77.99;100116.34;5019902;28;20041;-83
2022/11/11 01:42:23;;;;;;;6.53;3.95;;;;;;;8.49;78.40;100139.91;5004158;28;20046;-84
2022/11/11 01:44:48;;;;;;;9.02;4.60;;;;;;;8.38;78.45;100117.38;5025451;28;20545;-84
2022/11/11 01:47:16;;;;;;;7.95;3.85;;;;;;;8.34;79.19;100144.59;5005302;28;20030;-84
2022/11/11 01:49:41;;;;;;;16.92;4.50;;;;;;;8.29;78.71;100151.34;5001808;28;20022;-84
2022/11/11 01:52:11;;;;;;;11.35;4.40;;;;;;;8.35;79.05;100139.06;5027817;28;20025;-84
2022/11/11 01:54:42;;;;;;;9.75;4.78;;;;;;;8.37;79.26;100144.16;5018146;28;20040;-83
2022/11/11 01:57:10;;;;;;;7.43;4.18;;;;;;;8.30;79.66;100129.03;5009350;28;20393;-83
2022/11/11 01:59:38;;;;;;;9.68;3.65;;;;;;;8.32;79.52;100142.16;5005646;28;20406;-83
2022/11/11 02:02:14;;;;;;;13.15;4.30;;;;;;;8.27;80.11;100136.59;5027810;28;20128;-84
2022/11/11 02:07:25;;;;;;;6.63;4.10;;;;;;;8.32;79.26;100125.34;5010648;28;20098;-83
2022/11/11 02:09:51;;;;;;;9.68;4.53;;;;;;;8.40;79.50;100123.31;5033428;28;20095;-84
2022/11/11 02:15:02;;;;;;;27.23;7.47;;;;;;;8.15;79.52;100095.63;5025535;28;20056;-84
2022/11/11 02:17:30;;;;;;;10.13;4.68;;;;;;;8.33;79.01;100109.19;5027390;28;20144;-83
2022/11/11 02:20:00;;;;;;;13.35;4.15;;;;;;;8.36;79.27;100106.13;5029028;28;20014;-84
2022/11/11 02:22:35;;;;;;;11.05;4.60;;;;;;;8.38;79.69;100120.03;5005091;28;20115;-83
2022/11/11 02:25:03;;;;;;;8.93;5.07;;;;;;;8.40;78.86;100123.31;5021266;28;20038;-84
2022/11/11 02:27:30;;;;;;;9.25;5.10;;;;;;;8.37;79.39;100126.38;5024719;28;20061;-83
2022/11/11 02:29:58;;;;;;;9.95;5.20;;;;;;;8.45;78.06;100106.75;5026800;28;20033;-83
2022/11/11 02:32:24;;;;;;;10.52;4.82;;;;;;;8.02;80.89;100130.97;4974853;28;20041;-83
2022/11/11 02:34:50;;;;;;;8.18;4.50;;;;;;;7.90;81.75;100139.75;5003894;28;20029;-83
2022/11/11 02:37:19;;;;;;;15.45;5.97;;;;;;;7.98;81.07;100139.56;5028408;28;20116;-83
2022/11/11 02:39:48;;;;;;;8.50;4.30;;;;;;;8.41;79.60;100143.56;5026395;28;20500;-83
2022/11/11 02:42:17;;;;;;;10.75;4.93;;;;;;;8.58;78.54;100147.50;5026113;28;20037;-83
2022/11/11 02:44:42;;;;;;;9.02;4.32;;;;;;;7.86;80.47;100152.63;5004151;28;20021;-83
2022/11/11 02:47:08;;;;;;;9.07;4.55;;;;;;;8.23;79.38;100128.16;5028759;28;20588;-83
2022/11/11 02:49:33;;;;;;;14.15;5.03;;;;;;;8.12;80.20;100118.13;5021711;28;20041;-84
2022/11/11 02:51:58;;;;;;;9.85;6.43;;;;;;;8.17;79.27;100136.13;5026187;28;20057;-83
2022/11/11 02:54:24;;;;;;;9.05;4.85;;;;;;;8.21;80.00;100153.34;4993290;28;20037;-83
2022/11/11 02:57:07;;;;;;;8.80;4.63;;;;;;;8.03;80.70;100145.94;5026694;28;20040;-82
2022/11/11 02:59:38;;;;;;;9.60;5.13;;;;;;;7.65;81.47;100158.03;5012337;28;20079;-83
2022/11/11 03:02:04;;;;;;;15.77;6.50;;;;;;;7.57;81.41;100158.22;5026731;28;20041;-83
2022/11/11 03:04:29;;;;;;;13.88;5.72;;;;;;;7.47;80.48;100132.00;5006993;28;20029;-83
2022/11/11 03:06:55;;;;;;;17.50;6.32;;;;;;;7.68;80.46;100143.53;5028087;28;20033;-83
2022/11/11 03:09:20;;;;;;;11.75;6.22;;;;;;;7.79;81.03;100145.63;4996698;28;20092;-83
2022/11/11 03:11:46;;;;;;;10.57;4.88;;;;;;;7.82;80.26;100137.28;5024712;28;20064;-84
2022/11/11 03:14:11;;;;;;;8.35;3.95;;;;;;;7.99;80.60;100134.06;5021715;28;20468;-83
2022/11/11 03:19:20;;;;;;;12.65;6.38;;;;;;;7.25;83.56;100148.22;5024152;28;20797;-83
2022/11/11 03:21:46;;;;;;;23.00;8.43;;;;;;;7.43;81.32;100138.72;5024585;28;20021;-83
2022/11/11 03:24:11;;;;;;;21.52;8.70;;;;;;;7.40;81.14;100144.41;5003387;28;20029;-83
2022/11/11 03:26:37;;;;;;;11.75;5.50;;;;;;;7.31;83.23;100144.78;5010489;28;20030;-83
2022/11/11 03:29:03;;;;;;;8.65;5.00;;;;;;;7.47;81.93;100149.75;5024936;28;20037;-83
2022/11/11 03:31:29;;;;;;;12.45;4.82;;;;;;;7.23;83.59;100147.59;5006488;28;20552;-84
2022/11/11 03:33:54;;;;;;;10.75;4.95;;;;;;;6.93;83.78;100101.84;5028889;28;20025;-84
2022/11/11 03:36:19;;;;;;;19.48;8.15;;;;;;;7.12;81.65;100148.16;5002930;28;20040;-83
2022/11/11 03:38:45;;;;;;;18.20;7.32;;;;;;;6.52;84.18;100141.53;5019898;28;20033;-84
2022/11/11 03:41:10;;;;;;;10.82;5.50;;;;;;;6.88;84.79;100165.28;5006420;28;20112;-83
2022/11/11 03:43:36;;;;;;;14.07;6.20;;;;;;;6.35;83.75;100126.09;4993379;28;20060;-83
2022/11/11 03:46:03;;;;;;;19.00;8.32;;;;;;;6.85;83.46;100178.97;5001700;28;20033;-84
2022/11/11 03:48:31;;;;;;;9.27;4.70;;;;;;;6.73;84.02;100189.28;5021294;28;20248;-83
2022/11/11 03:50:57;;;;;;;18.48;7.20;;;;;;;6.83;82.49;100178.34;4988834;28;20033;-83
2022/11/11 03:53:22;;;;;;;13.80;7.68;;;;;;;5.96;85.95;100172.34;4990238;28;20041;-83
2022/11/11 03:55:49;;;;;;;11.77;5.50;;;;;;;6.56;84.87;100149.94;5019953;28;20501;-83
2022/11/11 03:58:16;;;;;;;12.43;5.00;;;;;;;7.27;83.18;100167.44;5020032;28;20108;-84
2022/11/11 04:00:42;;;;;;;10.20;5.15;;;;;;;7.22;82.57;100169.84;5019303;28;20029;-83
2022/11/11 04:11:39;;;;;;;17.73;8.23;;;;;;;6.88;81.69;100188.38;5019487;28;20028;-82
2022/11/11 04:16:52;;;;;;;18.23;7.80;;;;;;;6.26;83.85;100183.72;5021919;28;21093;-82
2022/11/11 04:22:02;;;;;;;13.75;6.20;;;;;;;7.28;80.92;100182.34;5023986;28;20040;-83
2022/11/11 04:27:15;;;;;;;13.68;6.82;;;;;;;7.40;80.16;100159.53;5019116;28;20037;-83
2022/11/11 04:29:41;;;;;;;12.88;6.13;;;;;;;7.55;79.92;100163.72;5021190;28;20392;-83
2022/11/11 04:34:55;;;;;;;14.40;6.47;;;;;;;7.79;79.16;100165.06;5021894;28;20035;-83
2022/11/11 04:37:22;;;;;;;11.23;5.25;;;;;;;7.74;79.74;100156.84;5023113;28;20436;-82
2022/11/11 04:42:33;;;;;;;10.10;5.88;;;;;;;7.47;80.97;100132.00;5005844;28;20123;-84
2022/11/11 04:47:57;;;;;;;17.95;10.98;;;;;;;7.45;80.94;100151.78;5024741;28;20071;-84
2022/11/11 04:50:24;;;;;;;13.98;7.15;;;;;;;7.26;81.17;100145.38;5027487;28;20029;-83
2022/11/11 04:52:50;;;;;;;17.10;10.10;;;;;;;6.68;83.26;100132.50;5010019;28;20482;-84
2022/11/11 04:58:00;;;;;;;22.30;10.20;;;;;;;6.97;82.20;100152.72;5012677;28;20595;-84
2022/11/11 05:00:25;;;;;;;15.77;7.15;;;;;;;7.03;82.57;100133.38;5006394;28;20120;-84
2022/11/11 05:11:08;;;;;;;11.35;6.53;;;;;;;7.79;79.57;100148.28;5017743;28;20524;-83
2022/11/11 05:21:51;;;;;;;15.98;8.50;;;;;;;7.57;79.69;100131.63;5009630;28;20027;-83
2022/11/11 05:27:00;;;;;;;16.95;9.48;;;;;;;6.74;82.91;100140.50;5008730;28;20071;-82
2022/11/11 05:29:25;;;;;;;21.38;10.50;;;;;;;6.09;86.14;100165.56;5021478;28;20108;-82
2022/11/11 05:31:51;;;;;;;24.95;11.90;;;;;;;5.82;87.74;100167.06;5020444;28;20125;-82
2022/11/11 05:34:16;;;;;;;19.67;8.52;;;;;;;7.04;83.92;100159.72;5000925;28;20064;-81
2022/11/11 05:36:41;;;;;;;26.38;10.63;;;;;;;6.77;83.16;100164.00;5005088;28;20045;-82
2022/11/11 05:39:07;;;;;;;23.02;10.18;;;;;;;5.89;86.86;100152.09;4990982;28;20026;-83
2022/11/11 05:41:32;;;;;;;23.75;10.80;;;;;;;6.64;83.33;100155.91;4993646;28;20556;-84
2022/11/11 05:43:58;;;;;;;19.15;8.63;;;;;;;6.73;84.30;100143.34;5029289;28;20112;-83
2022/11/11 05:46:23;;;;;;;16.88;7.93;;;;;;;6.79;83.02;100127.47;5029814;28;20033;-84
2022/11/11 05:51:32;;;;;;;17.95;8.70;;;;;;;6.59;85.29;100170.78;5029386;28;20036;-83
2022/11/11 05:53:58;;;;;;;17.83;8.00;;;;;;;7.12;81.92;100151.59;5031403;28;20033;-84
2022/11/11 05:56:23;;;;;;;13.63;7.25;;;;;;;7.28;80.85;100139.84;5024797;28;20045;-83
2022/11/11 05:58:48;;;;;;;17.75;8.63;;;;;;;6.93;82.27;100131.06;5018364;28;20147;-83
2022/11/11 06:01:14;;;;;;;22.33;11.77;;;;;;;7.25;80.54;100137.59;5018201;28;20116;-84
2022/11/11 06:03:39;;;;;;;23.92;11.20;;;;;;;7.32;80.64;100159.69;5001999;28;20029;-83
2022/11/11 06:06:05;;;;;;;18.65;7.70;;;;;;;7.27;81.02;100164.78;5032521;28;20087;-83
2022/11/11 06:08:30;;;;;;;16.17;8.00;;;;;;;7.38;80.73;100162.38;5034470;28;20037;-84
2022/11/11 06:10:55;;;;;;;18.38;9.60;;;;;;;7.33;80.02;100156.03;5034336;28;20029;-83
2022/11/11 06:13:21;;;;;;;16.75;8.00;;;;;;;7.50;79.82;100171.44;5034214;28;20163;-83
2022/11/11 06:15:46;;;;;;;16.02;7.90;;;;;;;7.50;80.74;100181.25;5017326;28;20029;-83
2022/11/11 06:18:12;;;;;;;17.30;8.85;;;;;;;7.52;79.91;100174.72;5035349;28;20780;-83
2022/11/11 06:20:37;;;;;;;13.82;8.10;;;;;;;7.48;79.95;100159.38;5034639;28;20041;-84
2022/11/11 06:23:04;;;;;;;22.55;9.05;;;;;;;7.75;79.42;100192.22;4997336;28;20116;-84
2022/11/11 06:28:17;;;;;;;12.93;8.23;;;;;;;7.80;79.90;100201.22;5014213;28;20037;-84
2022/11/11 06:30:44;;;;;;;15.32;8.27;;;;;;;7.47;79.81;100209.03;5014805;28;20030;-84
2022/11/11 06:33:10;;;;;;;21.70;9.55;;;;;;;6.82;83.71;100213.84;5031714;28;20164;-84
2022/11/11 06:35:36;;;;;;;22.83;11.43;;;;;;;7.33;81.47;100204.66;5015519;28;20124;-83
2022/11/11 06:38:04;;;;;;;18.70;8.77;;;;;;;7.43;80.30;100178.56;5032464;28;20029;-84
2022/11/11 06:40:29;;;;;;;14.35;8.38;;;;;;;7.53;80.25;100208.25;5015833;28;20072;-84
2022/11/11 06:42:56;;;;;;;22.00;10.50;;;;;;;6.72;82.01;100174.38;5026828;28;20123;-84
2022/11/11 06:45:23;;;;;;;20.25;8.38;;;;;;;7.40;80.67;100212.66;4996248;28;20101;-83
2022/11/11 06:47:48;;;;;;;14.48;7.28;;;;;;;7.35;81.21;100194.66;5032521;28;20041;-84
2022/11/11 06:50:14;;;;;;;16.48;7.53;;;;;;;7.73;79.35;100220.84;5010004;28;20048;-84
2022/11/11 06:52:39;;;;;;;16.90;8.13;;;;;;;7.66;80.30;100217.31;5006135;28;20045;-83
2022/11/11 06:55:05;;;;;;;22.98;9.85;;;;;;;7.08;82.08;100195.47;5014710;28;20045;-84
2022/11/11 06:57:30;;;;;;;16.63;9.13;;;;;;;6.35;86.06;100202.97;5000537;28;20029;-83
2022/11/11 06:59:56;;;;;;;14.95;7.95;;;;;;;7.45;81.46;100228.81;5017929;28;20033;-84
2022/11/11 07:02:21;;;;;;;18.75;9.45;;;;;;;6.86;83.57;100231.00;5029100;28;20663;-84
2022/11/11 07:04:46;;;;;;;17.92;8.60;;;;;;;7.19;82.06;100233.94;5014921;28;20056;-84
2022/11/11 07:07:12;;;;;;;22.58;8.98;;;;;;;6.74;84.74;100240.50;5015609;28;20029;-84
2022/11/11 07:09:37;;;;;;;16.85;7.82;;;;;;;7.28;82.20;100265.50;5013782;28;20034;-84
2022/11/11 07:12:03;;;;;;;16.02;8.25;;;;;;;7.40;81.65;100253.31;5014841;28;20029;-84
2022/11/11 07:14:28;;;;;;;14.27;7.85;;;;;;;7.55;81.93;100263.84;4995958;28;20038;-84
2022/11/11 07:16:53;;;;;;;14.20;7.88;;;;;;;7.33;81.93;100265.75;4981264;28;20057;-84
2022/11/11 07:19:19;;;;;;;14.43;8.25;;;;;;;7.56;81.05;100254.84;5014307;28;20087;-84
2022/11/11 07:21:44;;;;;;;12.13;7.30;;;;;;;7.79;79.75;100255.41;5013114;28;20040;-84
2022/11/11 07:24:09;;;;;;;21.73;7.43;;;;;;;7.64;80.57;100241.44;4985156;28;20039;-84
2022/11/11 07:26:35;;;;;;;17.88;8.45;;;;;;;7.80;80.21;100259.69;4997495;28;20025;-84
2022/11/11 07:29:00;;;;;;;14.73;6.93;;;;;;;7.77;80.97;100264.59;4997051;28;20462;-84
2022/11/11 07:31:25;;;;;;;12.02;6.95;;;;;;;7.50;81.24;100259.13;5029628;28;20037;-84
2022/11/11 07:33:51;;;;;;;14.75;6.65;;;;;;;7.79;80.26;100281.16;5011330;28;20117;-84
2022/11/11 07:36:16;;;;;;;14.85;7.90;;;;;;;7.77;79.99;100246.00;5010427;28;20123;-84
2022/11/11 07:38:42;;;;;;;14.68;7.28;;;;;;;7.79;80.47;100271.38;5039179;28;20053;-83
2022/11/11 07:41:07;;;;;;;13.50;7.80;;;;;;;7.58;81.40;100263.44;5006699;28;20124;-84
2022/11/11 07:43:32;;;;;;;13.60;7.10;;;;;;;7.69;81.29;100272.75;5010262;28;20030;-84
2022/11/11 07:45:58;;;;;;;17.83;8.57;;;;;;;7.61;82.82;100280.84;5014656;28;20378;-84
2022/11/11 07:48:23;;;;;;;16.30;7.68;;;;;;;7.62;82.12;100263.91;5018495;28;20038;-85
2022/11/11 07:50:51;;;;;;;21.20;8.05;;;;;;;7.42;82.79;100261.94;5027082;28;20478;-83
2022/11/11 07:53:17;;;;;;;13.63;7.25;;;;;;;7.79;81.77;100289.16;5019237;28;20048;-84
2022/11/11 07:55:45;;;;;;;17.08;7.50;;;;;;;7.71;82.31;100278.69;5025572;28;20493;-83
2022/11/11 07:58:10;;;;;;;15.50;6.93;;;;;;;7.71;82.47;100278.69;5028675;28;20021;-83
2022/11/11 08:00:35;;;;;;;14.55;7.45;;;;;;;8.06;80.44;100298.94;5010511;28;20117;-84
2022/11/11 08:03:01;;;;;;;13.45;7.70;;;;;;;7.92;81.44;100305.19;5033625;28;20509;-83
2022/11/11 08:05:27;;;;;;;14.35;7.85;;;;;;;7.92;81.65;100313.16;5012164;28;20029;-84
2022/11/11 08:07:52;;;;;;;19.55;9.32;;;;;;;7.72;83.61;100323.66;5032257;28;20401;-84
2022/11/11 08:10:17;;;;;;;14.77;7.55;;;;;;;7.94;81.26;100303.13;5032089;28;20029;-84
2022/11/11 08:15:27;;;;;;;12.57;7.18;;;;;;;7.98;82.31;100329.13;5034005;28;20048;-84
2022/11/11 08:17:52;;;;;;;13.13;7.18;;;;;;;8.10;81.57;100329.41;5044646;28;20038;-84
2022/11/11 08:20:17;;;;;;;12.15;6.25;;;;;;;8.02;81.42;100305.63;5031876;28;20501;-83
2022/11/11 08:22:43;;;;;;;15.63;7.63;;;;;;;8.09;82.23;100327.75;5016674;28;20113;-84
2022/11/11 08:25:12;;;;;;;18.35;8.90;;;;;;;8.10;81.74;100324.09;5023555;28;20117;-84
2022/11/11 08:27:38;;;;;;;14.50;7.80;;;;;;;8.15;81.65;100333.13;5022519;28;20061;-84
2022/11/11 08:30:06;;;;;;;17.75;6.88;;;;;;;8.20;81.46;100333.38;5016571;28;21690;-84
2022/11/11 08:32:31;;;;;;;12.77;6.90;;;;;;;8.18;81.35;100331.91;5021645;28;20461;-83
2022/11/11 08:34:57;;;;;;;18.23;8.63;;;;;;;8.08;81.77;100324.28;5013755;28;20033;-84
2022/11/11 08:37:22;;;;;;;11.48;6.75;;;;;;;8.12;80.93;100314.09;5008623;28;20045;-84
2022/11/11 08:39:48;;;;;;;19.10;8.48;;;;;;;8.31;80.94;100326.69;5004439;28;20021;-84
2022/11/11 08:42:13;;;;;;;15.70;8.15;;;;;;;8.20;80.88;100316.56;5009836;28;20056;-83
2022/11/11 08:44:38;;;;;;;17.33;7.47;;;;;;;7.87;83.10;100313.72;5006770;28;20022;-83
2022/11/11 08:47:04;;;;;;;13.15;8.45;;;;;;;8.01;82.13;100314.63;4989907;28;20132;-83
2022/11/11 08:49:29;;;;;;;16.02;8.43;;;;;;;8.03;82.00;100317.91;5027143;28;20085;-84
2022/11/11 08:51:55;;;;;;;14.35;7.40;;;;;;;8.17;81.78;100304.50;4987056;28;20037;-83
2022/11/11 08:54:20;;;;;;;16.20;7.43;;;;;;;8.28;81.92;100319.09;5006731;28;20450;-83
2022/11/11 08:56:45;;;;;;;18.35;7.80;;;;;;;8.31;81.44;100318.72;5030591;28;20057;-84
2022/11/11 08:59:11;;;;;;;15.55;8.65;;;;;;;8.12;81.84;100301.63;5016570;28;20032;-83
2022/11/11 09:01:36;;;;;;;14.35;6.43;;;;;;;8.21;81.57;100296.97;5011287;28;20120;-84
2022/11/11 09:04:02;;;;;;;12.60;5.70;;;;;;;8.28;82.05;100319.09;5026958;28;20056;-83
2022/11/11 09:06:28;;;;;;;14.32;7.63;;;;;;;8.08;82.01;100280.94;5025334;28;20128;-84
2022/11/11 09:08:54;;;;;;;15.48;6.95;;;;;;;8.27;81.79;100310.31;5024460;28;20037;-84
2022/11/11 09:11:19;;;;;;;11.23;6.72;;;;;;;8.39;81.56;100318.53;5006196;28;20037;-84
2022/11/11 09:13:48;;;;;;;10.20;6.40;;;;;;;8.25;81.86;100306.19;5009701;28;20056;-82
2022/11/11 09:16:14;;;;;;;17.45;7.35;;;;;;;8.20;81.82;100311.25;5026612;28;21061;-83
2022/11/11 09:18:39;;;;;;;9.15;6.63;;;;;;;8.26;82.23;100323.78;5025630;28;20112;-84
2022/11/11 09:21:05;;;;;;;11.75;6.22;;;;;;;8.32;82.38;100327.53;5011791;28;20401;-83
2022/11/11 09:23:30;;;;;;;12.27;6.60;;;;;;;8.42;81.64;100336.78;5023163;28;20025;-84
2022/11/11 09:25:58;;;;;;;12.27;6.75;;;;;;;8.35;81.56;100338.56;5015683;28;20033;-84
2022/11/11 09:28:24;;;;;;;13.70;6.28;;;;;;;8.45;81.32;100336.38;5022658;28;20041;-84
2022/11/11 09:30:49;;;;;;;13.15;6.93;;;;;;;8.43;81.60;100321.63;5025404;28;20032;-83
2022/11/11 09:33:17;;;;;;;10.43;6.20;;;;;;;8.58;81.56;100333.78;4988924;28;20041;-83
2022/11/11 09:35:42;;;;;;;10.98;6.10;;;;;;;8.49;81.24;100323.50;5019782;28;20037;-84
2022/11/11 09:38:08;;;;;;;12.75;6.50;;;;;;;8.60;81.20;100329.06;4989861;28;20392;-84
2022/11/11 09:40:58;;;;;;;12.65;5.85;;;;;;;8.62;81.41;100326.22;5023177;28;20037;-84
2022/11/11 09:43:35;;;;;;;15.38;5.70;;;;;;;8.60;81.33;100329.06;5023848;28;20030;-83
2022/11/11 09:46:14;;;;;;;15.40;6.82;;;;;;;8.60;82.80;100336.22;5022875;28;20033;-83
2022/11/11 09:49:15;;;;;;;11.18;5.45;;;;;;;8.71;81.99;100339.16;5022296;28;20120;-83
2022/11/11 09:51:47;;;;;;;10.70;5.75;;;;;;;8.47;82.93;100318.38;5025436;28;20275;-83
2022/11/11 09:54:30;;;;;;;13.38;6.47;;;;;;;8.75;81.57;100323.59;5025867;28;20029;-83
2022/11/11 09:57:00;;;;;;;9.60;5.20;;;;;;;8.69;82.59;100340.38;5017106;28;20103;-82
2022/11/11 09:59:34;;;;;;;8.45;5.93;;;;;;;8.83;81.86;100334.03;5022609;28;20037;-83
2022/11/11 10:02:00;;;;;;;8.60;4.50;;;;;;;8.93;81.62;100332.63;5024963;28;20044;-83
2022/11/11 10:04:29;;;;;;;11.23;5.57;;;;;;;8.83;82.39;100337.53;5000428;28;20363;-83
2022/11/11 10:07:02;;;;;;;10.30;5.40;;;;;;;8.93;81.25;100326.50;5019473;28;20034;-83
2022/11/11 10:09:53;;;;;;;9.70;5.20;;;;;;;9.01;81.46;100321.81;5000312;28;20486;-84
2022/11/11 10:12:21;;;;;;;10.63;4.97;;;;;;;9.15;80.67;100319.16;5025994;28;20159;-84
2022/11/11 10:14:51;;;;;;;12.88;5.15;;;;;;;9.24;81.03;100341.94;5018975;28;20025;-83
2022/11/11 10:17:39;;;;;;;7.35;4.55;;;;;;;9.14;81.09;100337.00;5022257;28;20599;-83
2022/11/11 10:20:15;;;;;;;7.55;4.30;;;;;;;9.10;80.74;100319.78;5004388;28;20068;-83
2022/11/11 10:22:43;;;;;;;9.43;4.45;;;;;;;9.14;80.60;100325.50;5026723;28;20040;-83
2022/11/11 10:25:11;;;;;;;7.10;3.83;;;;;;;9.18;80.42;100327.56;5019983;28;21400;-83
2022/11/11 10:27:41;;;;;;;7.30;4.47;;;;;;;9.02;80.52;100294.16;5024778;28;20040;-83
2022/11/11 10:30:16;;;;;;;10.70;4.30;;;;;;;9.14;80.21;100304.19;5014049;28;20026;-83
2022/11/11 10:32:43;;;;;;;8.02;3.88;;;;;;;9.32;79.45;100328.41;5029769;28;20067;-83
2022/11/11 10:35:19;;;;;;;5.70;3.88;;;;;;;9.23;79.44;100313.63;5009857;28;20389;-83
2022/11/11 10:37:44;;;;;;;12.25;3.83;;;;;;;9.42;79.12;100329.63;5011783;28;20087;-82
2022/11/11 10:40:34;;;;;;;8.38;4.07;;;;;;;9.45;78.99;100323.09;5020515;28;20501;-83
2022/11/11 10:42:59;;;;;;;7.15;4.00;;;;;;;9.43;78.64;100319.81;5021481;28;20520;-83
2022/11/11 10:45:38;;;;;;;6.03;3.83;;;;;;;9.47;78.87;100318.38;5025464;28;20037;-83
2022/11/11 10:48:15;;;;;;;6.05;3.55;;;;;;;9.50;78.57;100309.97;5020536;28;20079;-83
2022/11/11 10:50:46;;;;;;;5.28;3.53;;;;;;;9.70;78.02;100337.41;5027789;28;20030;-83
2022/11/11 10:53:14;;;;;;;8.43;4.45;;;;;;;9.82;77.42;100336.59;5027916;28;20033;-82
2022/11/11 10:56:04;;;;;;;7.78;3.55;;;;;;;9.79;77.18;100325.53;5002310;28;21261;-83
2022/11/11 10:58:36;;;;;;;8.95;4.10;;;;;;;10.00;76.09;100333.31;5012392;28;20022;-84
2022/11/11 11:01:04;;;;;;;7.68;3.92;;;;;;;10.19;74.47;100339.63;5027731;28;20670;-84
2022/11/11 11:03:35;;;;;;;7.20;3.88;;;;;;;10.38;73.63;100336.91;5007236;28;20029;-84
2022/11/11 11:06:12;;;;;;;10.15;4.13;;;;;;;10.44;73.89;100321.91;5027898;28;20117;-85
2022/11/11 11:09:05;;;;;;;12.23;3.90;;;;;;;10.43;74.42;100328.28;5014502;28;20041;-85
2022/11/11 11:11:45;;;;;;;10.18;4.05;;;;;;;10.37;74.53;100308.59;5032867;28;20688;-84
2022/11/11 11:14:34;;;;;;;5.85;3.20;;;;;;;10.57;74.28;100328.00;5030349;28;20425;-85
2022/11/11 11:17:07;;;;;;;6.47;3.22;;;;;;;10.42;73.99;100306.09;5015229;28;20613;-85
2022/11/11 11:19:33;;;;;;;6.85;3.40;;;;;;;10.55;74.10;100316.72;5025495;28;20035;-85
2022/11/11 11:22:00;;;;;;;7.85;3.22;;;;;;;10.67;74.42;100313.38;5032218;28;20034;-84
2022/11/11 11:24:35;;;;;;;6.65;3.10;;;;;;;10.58;74.33;100312.81;5027710;28;20025;-85
2022/11/11 11:27:03;;;;;;;5.20;3.03;;;;;;;10.90;73.49;100332.38;5027157;28;20034;-85
2022/11/11 11:29:41;;;;;;;4.20;2.88;;;;;;;11.02;72.40;100330.66;5008431;28;20033;-85
2022/11/11 11:32:16;;;;;;;12.43;3.42;;;;;;;11.04;72.03;100331.25;5027692;28;20025;-85
2022/11/11 11:34:52;;;;;;;4.93;2.80;;;;;;;11.05;72.45;100338.25;5029408;28;20037;-85
2022/11/11 11:37:20;;;;;;;5.78;3.03;;;;;;;11.18;71.90;100330.94;5014586;28;20037;-85
2022/11/11 11:39:47;;;;;;;4.72;2.80;;;;;;;11.17;72.72;100334.66;5009859;28;20393;-85
2022/11/11 11:42:32;;;;;;;7.82;2.85;;;;;;;11.20;71.91;100336.09;5012055;28;20037;-84
2022/11/11 11:45:22;;;;;;;5.90;2.72;;;;;;;11.09;72.09;100318.06;5023277;28;20040;-85
2022/11/11 11:47:59;;;;;;;6.95;3.13;;;;;;;11.23;71.58;100341.81;5030544;28;20022;-84
2022/11/11 11:50:40;;;;;;;5.07;3.03;;;;;;;11.32;71.33;100348.53;5026399;28;20022;-84
2022/11/11 11:53:23;;;;;;;8.90;3.22;;;;;;;11.38;70.65;100343.38;5025930;28;20025;-85
2022/11/11 11:56:18;;;;;;;7.50;2.47;;;;;;;11.29;70.83;100340.94;5027649;28;20477;-85
2022/11/11 11:58:59;;;;;;;4.18;3.13;;;;;;;11.14;71.16;100340.44;5029791;28;20025;-84
2022/11/11 12:01:43;;;;;;;6.00;3.50;;;;;;;11.29;71.20;100337.47;5031199;28;20029;-84
2022/11/11 12:04:43;;;;;;;6.22;2.90;;;;;;;11.18;70.50;100317.59;5032562;28;20047;-84
2022/11/11 12:07:15;;;;;;;7.10;3.35;;;;;;;11.29;70.54;100334.81;5029571;28;20032;-85
2022/11/11 12:09:49;;;;;;;5.13;3.08;;;;;;;11.28;70.58;100333.16;5028118;28;20516;-84
2022/11/11 12:12:47;;;;;;;4.15;2.55;;;;;;;11.45;70.49;100336.94;5029039;28;20087;-84
2022/11/11 12:15:51;;;;;;;10.18;3.78;;;;;;;11.43;70.38;100333.66;5022502;28;20026;-84
2022/11/11 12:18:47;;;;;;;4.15;2.63;;;;;;;11.67;70.11;100332.88;5018750;28;20119;-84
2022/11/11 12:21:14;;;;;;;9.50;4.07;;;;;;;11.87;69.24;100308.63;5029884;28;20114;-84
2022/11/11 12:23:55;;;;;;;5.95;3.10;;;;;;;11.92;69.22;100320.31;5012841;28;20037;-83
2022/11/11 12:26:39;;;;;;;6.32;2.35;;;;;;;12.03;68.85;100314.19;5011303;28;20040;-84
2022/11/11 12:29:04;;;;;;;10.02;3.00;;;;;;;12.13;68.76;100326.25;5029321;28;20025;-84
2022/11/11 12:31:38;;;;;;;6.30;2.55;;;;;;;11.95;69.09;100319.84;5029915;28;20021;-84
2022/11/11 12:34:38;;;;;;;5.53;2.58;;;;;;;12.17;68.80;100314.88;5027186;28;20036;-84
2022/11/11 12:37:41;;;;;;;8.02;2.63;;;;;;;12.43;67.58;100308.41;5028626;28;20429;-84
2022/11/11 12:40:18;;;;;;;4.28;2.20;;;;;;;12.48;67.20;100306.69;5012995;28;20030;-84
2022/11/11 12:43:04;;;;;;;6.00;2.30;;;;;;;12.67;66.51;100307.47;5012121;28;20033;-84
2022/11/11 12:45:46;;;;;;;5.50;2.10;;;;;;;12.62;66.54;100304.69;5029761;28;20029;-84
2022/11/11 12:48:17;;;;;;;6.13;2.58;;;;;;;12.73;66.52;100306.59;5026443;28;20413;-83
2022/11/11 12:51:06;;;;;;;5.50;2.00;;;;;;;12.79;65.75;100287.75;5007591;28;20561;-84
2022/11/11 12:53:41;;;;;;;6.70;1.88;;;;;;;12.73;66.57;100299.34;5003676;28;20137;-84
2022/11/11 12:56:32;;;;;;;9.57;2.30;;;;;;;12.79;66.13;100295.78;5026904;28;20105;-84